createdAt,value
2023-03-10T00:01:21.815Z,74.37
2023-03-10T00:03:50.502Z,74.78
2023-03-10T00:06:21.291Z,74.00
2023-03-10T00:08:49.669Z,71.56
2023-03-10T00:11:18.413Z,72.36
2023-03-10T00:18:58.573Z,71.47
2023-03-10T00:21:30.052Z,69.83
2023-03-10T00:23:59.240Z,69.43
2023-03-10T00:26:28.410Z,70.76
2023-03-10T00:28:56.803Z,70.16
2023-03-10T00:31:27.201Z,71.16
2023-03-10T00:33:56.239Z,69.09
2023-03-10T00:36:27.338Z,69.20
2023-03-10T00:38:56.440Z,68.93
2023-03-10T00:41:31.167Z,66.16
2023-03-10T00:44:01.233Z,66.48
2023-03-10T00:46:33.403Z,66.97
2023-03-10T00:49:03.154Z,67.00
2023-03-10T00:51:32.022Z,67.96
2023-03-10T00:54:03.415Z,67.65
2023-03-10T00:56:31.701Z,67.53
2023-03-10T00:59:01.394Z,67.89
2023-03-10T01:01:32.945Z,67.81
2023-03-10T01:04:03.803Z,68.45
2023-03-10T01:06:32.488Z,68.64
2023-03-10T01:09:02.204Z,68.45
2023-03-10T01:11:42.417Z,66.96
2023-03-10T01:14:13.606Z,67.66
2023-03-10T01:16:41.888Z,68.10
2023-03-10T01:19:10.974Z,68.61
2023-03-10T01:21:39.951Z,68.75
2023-03-10T01:24:08.307Z,68.41
2023-03-10T01:26:38.684Z,68.82
2023-03-10T01:29:07.931Z,69.75
2023-03-10T01:31:36.804Z,68.96
2023-03-10T01:34:06.112Z,69.19
2023-03-10T01:36:34.439Z,69.10
2023-03-10T01:39:03.473Z,69.41
2023-03-10T01:41:31.913Z,67.75
2023-03-10T01:44:00.862Z,67.26
2023-03-10T01:46:42.027Z,67.09
2023-03-10T01:49:22.988Z,66.99
2023-03-10T01:52:05.564Z,66.93
2023-03-10T01:54:57.818Z,65.12
2023-03-10T01:57:29.117Z,65.45
2023-03-10T01:59:58.113Z,66.10
2023-03-10T02:02:27.506Z,65.66
2023-03-10T02:04:56.152Z,64.96
2023-03-10T02:07:27.504Z,64.88
2023-03-10T02:09:56.781Z,65.26
2023-03-10T02:12:25.215Z,65.41
2023-03-10T02:14:56.492Z,65.75
2023-03-10T02:17:26.714Z,64.84
2023-03-10T02:20:14.150Z,64.40
2023-03-10T02:22:43.018Z,65.06
2023-03-10T02:25:33.509Z,64.68
2023-03-10T02:28:01.855Z,65.24
2023-03-10T02:30:30.597Z,64.89
2023-03-10T02:33:01.984Z,65.42
2023-03-10T02:35:30.390Z,65.73
2023-03-10T02:38:05.152Z,65.58
2023-03-10T02:40:37.785Z,65.06
2023-03-10T02:43:26.748Z,65.41
2023-03-10T02:46:00.895Z,65.15
2023-03-10T02:48:31.978Z,65.46
2023-03-10T02:51:02.046Z,64.79
2023-03-10T02:53:30.788Z,63.82
2023-03-10T02:56:00.042Z,63.49
2023-03-10T02:58:30.437Z,63.14
2023-03-10T03:00:59.409Z,63.64
2023-03-10T03:03:27.927Z,63.20
2023-03-10T03:05:57.558Z,63.69
2023-03-10T03:08:29.978Z,63.33
2023-03-10T03:10:59.337Z,62.51
2023-03-10T03:13:27.715Z,62.89
2023-03-10T03:15:56.533Z,63.64
2023-03-10T03:18:26.791Z,63.62
2023-03-10T03:20:55.392Z,63.43
2023-03-10T03:23:23.672Z,63.03
2023-03-10T03:25:52.886Z,61.73
2023-03-10T03:28:22.460Z,60.95
2023-03-10T03:30:52.268Z,60.98
2023-03-10T03:33:20.825Z,61.16
2023-03-10T03:35:49.306Z,61.31
2023-03-10T03:38:18.742Z,61.18
2023-03-10T03:40:47.917Z,60.97
2023-03-10T03:43:18.011Z,61.20
2023-03-10T03:45:51.900Z,61.80
2023-03-10T03:48:22.538Z,61.59
2023-03-10T03:50:51.526Z,61.17
2023-03-10T03:53:25.268Z,61.96
2023-03-10T03:55:53.790Z,61.59
2023-03-10T03:58:23.433Z,61.10
2023-03-10T04:00:52.457Z,60.96
2023-03-10T04:03:21.137Z,60.13
2023-03-10T04:05:50.237Z,59.92
2023-03-10T04:08:21.739Z,60.66
2023-03-10T04:10:54.448Z,60.57
2023-03-10T04:13:29.286Z,59.51
2023-03-10T04:15:58.480Z,59.26
2023-03-10T04:18:29.679Z,58.86
2023-03-10T04:21:01.691Z,59.07
2023-03-10T04:23:30.945Z,60.00
2023-03-10T04:26:01.427Z,60.17
2023-03-10T04:28:31.143Z,59.55
2023-03-10T04:30:59.836Z,59.39
2023-03-10T04:33:30.923Z,58.86
2023-03-10T04:36:03.488Z,57.97
2023-03-10T04:38:33.473Z,57.96
2023-03-10T04:41:03.134Z,57.79
2023-03-10T04:43:33.573Z,58.12
2023-03-10T04:46:02.712Z,58.30
2023-03-10T04:48:31.160Z,58.33
2023-03-10T04:51:01.956Z,56.34
2023-03-10T04:53:32.898Z,56.74
2023-03-10T04:56:03.252Z,57.77
2023-03-10T04:58:32.502Z,56.61
2023-03-10T05:01:03.452Z,55.96
2023-03-10T05:03:36.484Z,56.07
2023-03-10T05:06:05.846Z,56.48
2023-03-10T05:08:37.518Z,55.27
2023-03-10T05:11:07.635Z,55.67
2023-03-10T05:13:36.556Z,57.17
2023-03-10T05:16:05.642Z,57.37
2023-03-10T05:18:36.440Z,56.64
2023-03-10T05:21:05.942Z,55.36
2023-03-10T05:23:34.570Z,55.55
2023-03-10T05:26:05.042Z,54.95
2023-03-10T05:28:34.437Z,54.62
2023-03-10T05:31:08.790Z,54.67
2023-03-10T05:33:37.251Z,54.89
2023-03-10T05:36:07.600Z,53.97
2023-03-10T05:38:36.472Z,53.94
2023-03-10T05:41:08.435Z,54.12
2023-03-10T05:43:39.430Z,53.71
2023-03-10T05:46:10.678Z,52.89
2023-03-10T05:48:45.942Z,53.38
2023-03-10T05:51:14.711Z,52.69
2023-03-10T05:53:44.425Z,52.02
2023-03-10T05:56:17.851Z,51.93
2023-03-10T05:58:47.198Z,51.81
2023-03-10T06:01:17.279Z,51.92
2023-03-10T06:03:46.848Z,51.03
2023-03-10T06:06:18.464Z,51.06
2023-03-10T06:08:48.939Z,50.84
2023-03-10T06:11:18.657Z,50.69
2023-03-10T06:13:49.238Z,50.55
2023-03-10T06:16:18.275Z,50.01
2023-03-10T06:18:53.371Z,48.88
2023-03-10T06:21:21.828Z,49.85
2023-03-10T06:23:50.185Z,49.19
2023-03-10T06:26:19.062Z,50.22
2023-03-10T06:28:47.720Z,49.57
2023-03-10T06:31:24.598Z,51.01
2023-03-10T06:33:53.186Z,50.43
2023-03-10T06:36:22.458Z,49.53
2023-03-10T06:38:50.651Z,50.19
2023-03-10T06:41:19.153Z,50.48
2023-03-10T06:43:48.168Z,50.38
2023-03-10T06:46:16.881Z,50.18
2023-03-10T06:48:45.780Z,49.61
2023-03-10T06:51:16.900Z,48.39
2023-03-10T06:53:45.940Z,49.15
2023-03-10T06:56:17.108Z,50.66
2023-03-10T06:58:49.994Z,50.65
2023-03-10T07:01:31.722Z,50.58
2023-03-10T07:04:01.286Z,49.94
2023-03-10T07:06:32.841Z,50.15
2023-03-10T07:09:19.734Z,50.20
2023-03-10T07:11:48.744Z,48.76
2023-03-10T07:14:17.585Z,49.16
2023-03-10T07:16:46.867Z,48.64
2023-03-10T07:19:15.277Z,47.20
2023-03-10T07:21:44.105Z,48.44
2023-03-10T07:24:13.312Z,48.62
2023-03-10T07:26:41.892Z,48.41
2023-03-10T07:29:11.363Z,48.52
2023-03-10T07:31:41.306Z,47.01
2023-03-10T07:34:11.156Z,47.46
2023-03-10T07:36:39.564Z,46.99
2023-03-10T07:39:08.536Z,46.14
2023-03-10T07:41:36.982Z,46.66
2023-03-10T07:44:05.647Z,46.53
2023-03-10T07:46:34.720Z,48.53
2023-03-10T07:49:07.038Z,48.97
2023-03-10T07:51:36.152Z,46.07
2023-03-10T07:54:05.375Z,46.37
2023-03-10T07:56:33.948Z,47.51
2023-03-10T07:59:02.775Z,48.82
2023-03-10T08:01:35.839Z,47.63
2023-03-10T08:04:05.499Z,48.10
2023-03-10T08:06:35.770Z,48.18
2023-03-10T08:09:04.587Z,48.99
2023-03-10T08:11:33.475Z,47.67
2023-03-10T08:14:02.700Z,47.40
2023-03-10T08:16:31.557Z,46.59
2023-03-10T08:19:00.540Z,45.30
2023-03-10T08:21:29.572Z,46.32
2023-03-10T08:24:01.093Z,46.14
2023-03-10T08:26:29.736Z,45.44
2023-03-10T08:28:58.103Z,45.44
2023-03-10T08:31:26.426Z,44.80
2023-03-10T08:33:57.183Z,44.43
2023-03-10T08:36:29.696Z,45.88
2023-03-10T08:38:59.908Z,46.44
2023-03-10T08:41:36.201Z,45.54
2023-03-10T08:44:05.761Z,47.15
2023-03-10T08:46:35.283Z,46.85
2023-03-10T08:49:04.380Z,46.06
2023-03-10T08:51:33.560Z,45.17
2023-03-10T08:54:02.599Z,45.21
2023-03-10T08:56:31.330Z,45.68
2023-03-10T08:59:04.710Z,44.40
2023-03-10T09:01:34.889Z,43.61
2023-03-10T09:04:05.418Z,42.45
2023-03-10T09:06:34.172Z,42.83
2023-03-10T09:09:02.968Z,43.47
2023-03-10T09:11:33.128Z,44.60
2023-03-10T09:14:01.954Z,45.17
2023-03-10T09:16:31.047Z,45.84
2023-03-10T09:18:59.822Z,44.84
2023-03-10T09:21:30.259Z,44.55
2023-03-10T09:24:01.098Z,42.25
2023-03-10T09:26:30.464Z,43.72
2023-03-10T09:29:05.592Z,43.75
2023-03-10T09:31:36.349Z,43.61
2023-03-10T09:34:06.862Z,43.21
2023-03-10T09:36:38.668Z,42.11
2023-03-10T09:39:08.225Z,42.40
2023-03-10T09:42:37.034Z,44.17
2023-03-10T09:45:21.447Z,42.54
2023-03-10T09:48:05.152Z,42.74
2023-03-10T09:50:35.570Z,42.39
2023-03-10T09:53:10.103Z,42.72
2023-03-10T09:55:47.877Z,41.32
2023-03-10T09:58:36.895Z,42.25
2023-03-10T10:01:06.018Z,41.68
2023-03-10T10:03:52.166Z,42.26
2023-03-10T10:06:30.432Z,41.91
2023-03-10T10:09:04.552Z,41.78
2023-03-10T10:11:35.412Z,41.57
2023-03-10T10:14:28.423Z,41.76
2023-03-10T10:17:30.229Z,41.39
2023-03-10T10:20:00.338Z,40.87
2023-03-10T10:22:34.809Z,41.35
2023-03-10T10:25:09.356Z,41.03
2023-03-10T10:27:38.181Z,41.75
2023-03-10T10:32:12.968Z,44.85
2023-03-10T10:34:43.174Z,43.05
2023-03-10T10:37:29.432Z,42.97
2023-03-10T10:39:59.742Z,42.85
2023-03-10T10:42:29.968Z,43.54
2023-03-10T10:45:06.600Z,43.40
2023-03-10T10:47:36.536Z,42.86
2023-03-10T10:50:18.377Z,42.72
2023-03-10T10:52:51.324Z,42.97
2023-03-10T10:55:34.571Z,43.24
2023-03-10T10:58:06.873Z,42.93
2023-03-10T11:00:39.735Z,43.17
2023-03-10T11:03:23.540Z,43.02
2023-03-10T11:05:52.348Z,43.00
2023-03-10T11:08:37.590Z,42.94
2023-03-10T11:11:17.934Z,42.39
2023-03-10T11:13:51.465Z,43.04
2023-03-10T11:16:24.145Z,42.51
2023-03-10T11:19:08.680Z,42.69
2023-03-10T11:21:38.703Z,42.09
2023-03-10T11:24:43.068Z,42.81
2023-03-10T11:27:17.625Z,43.41
2023-03-10T11:29:59.369Z,43.38
2023-03-10T11:32:41.395Z,43.67
2023-03-10T11:35:20.854Z,43.36
2023-03-10T11:37:54.082Z,44.75
2023-03-10T11:40:39.796Z,44.28
2023-03-10T11:43:27.917Z,44.67
2023-03-10T11:45:57.358Z,43.93
2023-03-10T11:48:29.105Z,44.69
2023-03-10T11:51:02.195Z,44.38
2023-03-10T11:53:36.033Z,44.18
2023-03-10T11:56:06.253Z,44.38
2023-03-10T11:58:52.891Z,44.94
2023-03-10T12:01:28.767Z,45.86
2023-03-10T12:04:25.487Z,45.43
2023-03-10T12:07:04.878Z,45.20
2023-03-10T12:09:39.816Z,45.73
2023-03-10T12:12:13.114Z,45.76
2023-03-10T12:14:41.462Z,46.23
2023-03-10T12:17:12.069Z,45.77
2023-03-10T12:20:18.973Z,45.79
2023-03-10T12:22:52.457Z,46.74
2023-03-10T12:25:30.350Z,46.30
2023-03-10T12:28:16.764Z,46.06
2023-03-10T12:31:02.003Z,45.89
2023-03-10T12:33:37.619Z,46.45
2023-03-10T12:36:17.231Z,45.44
2023-03-10T12:38:51.579Z,46.19
2023-03-10T12:41:49.908Z,46.83
2023-03-10T12:44:44.278Z,45.44
2023-03-10T12:47:19.496Z,46.19
2023-03-10T12:49:55.916Z,46.33
2023-03-10T12:52:47.973Z,45.64
2023-03-10T12:55:19.124Z,45.18
2023-03-10T12:57:50.502Z,46.01
2023-03-10T13:00:43.622Z,46.28
2023-03-10T13:03:42.168Z,44.22
2023-03-10T13:06:11.199Z,44.55
2023-03-10T13:08:42.429Z,44.17
2023-03-10T13:11:23.270Z,44.16
2023-03-10T13:13:55.541Z,44.66
2023-03-10T13:16:24.109Z,44.26
2023-03-10T13:19:01.454Z,44.09
2023-03-10T13:21:36.689Z,43.57
2023-03-10T13:24:39.934Z,42.83
2023-03-10T13:27:19.759Z,42.79
2023-03-10T13:29:56.403Z,42.20
2023-03-10T13:32:25.486Z,42.26
2023-03-10T13:34:54.385Z,41.93
2023-03-10T13:37:22.987Z,41.97
2023-03-10T13:39:51.528Z,41.01
2023-03-10T13:42:40.878Z,41.09
2023-03-10T13:45:22.799Z,40.77
2023-03-10T13:47:52.005Z,40.97
2023-03-10T13:50:20.451Z,41.27
2023-03-10T13:52:53.366Z,40.96
2023-03-10T13:55:21.790Z,40.82
2023-03-10T13:57:50.447Z,40.88
2023-03-10T14:00:23.885Z,41.24
2023-03-10T14:02:52.501Z,40.92
2023-03-10T14:05:48.174Z,40.99
2023-03-10T14:08:18.284Z,40.53
2023-03-10T14:10:47.072Z,41.02
2023-03-10T14:13:41.751Z,41.05
2023-03-10T14:16:10.039Z,40.72
2023-03-10T14:18:51.588Z,40.78
2023-03-10T14:21:33.876Z,40.79
2023-03-10T14:24:04.069Z,41.07
2023-03-10T14:26:34.674Z,41.65
2023-03-10T14:29:04.235Z,42.08
2023-03-10T14:31:32.563Z,41.87
2023-03-10T14:34:00.849Z,41.71
2023-03-10T14:36:29.429Z,42.03
2023-03-10T14:39:01.195Z,42.16
2023-03-10T14:41:29.723Z,42.08
2023-03-10T14:43:59.000Z,41.99
2023-03-10T14:46:29.013Z,42.04
2023-03-10T14:48:57.576Z,42.21
2023-03-10T14:51:35.095Z,42.31
2023-03-10T14:54:04.274Z,42.57
2023-03-10T14:56:33.626Z,42.41
2023-03-10T14:59:02.760Z,42.55
2023-03-10T15:01:31.169Z,42.78
2023-03-10T15:03:59.487Z,42.76
2023-03-10T15:06:28.026Z,42.79
2023-03-10T15:08:56.458Z,43.31
2023-03-10T15:11:36.588Z,43.17
2023-03-10T15:14:15.673Z,43.59
2023-03-10T15:16:49.559Z,43.76
2023-03-10T15:19:25.378Z,43.69
2023-03-10T15:21:54.253Z,43.80
2023-03-10T15:24:22.513Z,44.02
2023-03-10T15:26:51.452Z,43.89
2023-03-10T15:29:23.682Z,44.38
2023-03-10T15:31:52.938Z,44.25
2023-03-10T15:34:21.118Z,44.51
2023-03-10T15:36:51.640Z,44.46
2023-03-10T15:39:31.161Z,45.02
2023-03-10T15:42:00.705Z,45.14
2023-03-10T15:44:30.683Z,45.49
2023-03-10T15:47:00.274Z,45.38
2023-03-10T15:49:30.382Z,46.07
2023-03-10T15:51:58.799Z,45.83
2023-03-10T15:54:27.126Z,46.34
2023-03-10T15:56:55.342Z,46.19
2023-03-10T15:59:28.161Z,46.52
2023-03-10T16:01:57.314Z,46.41
2023-03-10T16:04:25.677Z,46.15
2023-03-10T16:06:55.685Z,45.96
2023-03-10T16:09:24.118Z,46.44
2023-03-10T16:11:53.775Z,46.62
2023-03-10T16:14:26.427Z,47.37
2023-03-10T16:16:55.104Z,47.31
2023-03-10T16:19:23.468Z,47.34
2023-03-10T16:21:53.643Z,47.86
2023-03-10T16:24:22.406Z,47.60
2023-03-10T16:26:50.725Z,47.57
2023-03-10T16:29:20.119Z,48.01
2023-03-10T16:31:48.387Z,48.39
2023-03-10T16:34:18.642Z,48.69
2023-03-10T16:36:49.820Z,48.91
2023-03-10T16:39:18.381Z,48.37
2023-03-10T16:41:49.985Z,48.81
2023-03-10T16:44:18.699Z,48.82
2023-03-10T16:46:47.281Z,48.82
2023-03-10T16:49:16.046Z,49.00
2023-03-10T16:51:45.484Z,49.51
2023-03-10T16:54:24.837Z,49.83
2023-03-10T16:56:53.722Z,50.14
2023-03-10T16:59:24.317Z,50.23
2023-03-10T17:01:52.570Z,50.48
2023-03-10T17:04:21.186Z,50.58
2023-03-10T17:06:52.640Z,50.39
2023-03-10T17:09:21.286Z,51.00
2023-03-10T17:11:54.804Z,51.13
2023-03-10T17:14:23.991Z,51.82
2023-03-10T17:16:54.266Z,51.28
2023-03-10T17:19:28.911Z,51.61
2023-03-10T17:21:57.695Z,52.13
2023-03-10T17:24:27.572Z,51.78
2023-03-10T17:26:57.073Z,51.92
2023-03-10T17:29:25.846Z,51.94
2023-03-10T17:31:56.964Z,52.45
2023-03-10T17:34:27.356Z,53.14
2023-03-10T17:36:55.741Z,52.92
2023-03-10T17:39:25.129Z,52.58
2023-03-10T17:41:57.241Z,53.00
2023-03-10T17:44:27.691Z,52.79
2023-03-10T17:46:58.736Z,52.99
2023-03-10T17:49:26.982Z,52.79
2023-03-10T17:51:55.826Z,53.11
2023-03-10T17:54:24.462Z,53.69
2023-03-10T17:56:53.259Z,53.36
2023-03-10T17:59:21.848Z,53.39
2023-03-10T18:01:51.304Z,53.58
2023-03-10T18:04:19.662Z,53.36
2023-03-10T18:06:49.136Z,53.83
2023-03-10T18:09:38.201Z,53.97
2023-03-10T18:12:07.228Z,53.97
2023-03-10T18:14:35.809Z,53.44
2023-03-10T18:17:04.332Z,53.69
2023-03-10T18:19:32.734Z,53.30
2023-03-10T18:22:08.509Z,53.02
2023-03-10T18:24:43.240Z,53.85
2023-03-10T18:27:12.202Z,54.02
2023-03-10T18:29:40.558Z,54.27
2023-03-10T18:32:08.847Z,53.78
2023-03-10T18:34:38.188Z,54.11
2023-03-10T18:37:06.687Z,54.07
2023-03-10T18:39:36.629Z,54.75
2023-03-10T19:28:56.272Z,58.01
2023-03-10T19:31:27.079Z,57.07
2023-03-10T19:33:55.851Z,56.92
2023-03-10T19:36:26.695Z,56.97
2023-03-10T19:38:55.136Z,56.61
2023-03-10T19:41:23.740Z,56.50
2023-03-10T19:43:52.279Z,56.26
2023-03-10T19:46:20.823Z,56.11
2023-03-10T19:48:49.264Z,56.53
2023-03-10T19:51:22.676Z,57.33
2023-03-10T19:53:52.284Z,57.91
2023-03-10T19:56:21.554Z,57.71
2023-03-10T19:58:50.158Z,58.04
2023-03-10T20:01:26.344Z,58.69
2023-03-10T20:03:57.082Z,58.31
2023-03-10T20:06:25.602Z,58.65
2023-03-10T20:08:54.683Z,58.13
2023-03-10T20:11:23.370Z,57.66
2023-03-10T20:13:52.759Z,57.75
2023-03-10T20:16:24.412Z,58.03
2023-03-10T20:18:53.026Z,57.84
2023-03-10T20:21:21.628Z,57.76
2023-03-10T20:23:51.426Z,57.53
2023-03-10T20:26:20.217Z,57.76
2023-03-10T20:28:49.143Z,57.41
2023-03-10T20:31:19.108Z,57.79
2023-03-10T20:33:47.818Z,57.29
2023-03-10T20:36:17.563Z,57.34
2023-03-10T20:38:46.840Z,57.37
2023-03-10T20:41:16.675Z,56.92
2023-03-10T20:43:45.289Z,56.90
2023-03-10T20:46:13.707Z,57.16
2023-03-10T20:48:42.403Z,56.33
2023-03-10T20:51:11.910Z,56.36
2023-03-10T20:53:40.550Z,56.45
2023-03-10T20:56:10.004Z,56.89
2023-03-10T20:58:38.416Z,56.89
2023-03-10T21:01:07.155Z,56.98
2023-03-10T21:03:35.657Z,56.78
2023-03-10T21:06:10.773Z,56.53
2023-03-10T21:08:39.641Z,56.85
2023-03-10T21:11:09.610Z,56.43
2023-03-10T21:13:38.481Z,56.24
2023-03-10T21:16:07.599Z,56.30
2023-03-10T21:18:36.020Z,56.68
2023-03-10T21:21:09.754Z,56.51
2023-03-10T21:23:42.256Z,56.55
2023-03-10T21:26:12.288Z,56.40
2023-03-10T21:28:41.413Z,56.84
2023-03-10T21:31:09.798Z,56.26
2023-03-10T21:33:41.841Z,56.15
2023-03-10T21:36:14.559Z,55.84
2023-03-10T21:38:43.388Z,56.22
2023-03-10T21:41:14.483Z,55.72
2023-03-10T21:43:46.057Z,55.46
2023-03-10T21:46:14.559Z,55.25
2023-03-10T21:48:44.423Z,55.83
2023-03-10T21:51:14.513Z,55.50
2023-03-10T21:53:43.125Z,55.63
2023-03-10T21:56:12.858Z,55.78
2023-03-10T21:58:41.443Z,55.19
2023-03-10T22:01:11.345Z,55.01
2023-03-10T22:03:39.982Z,54.91
2023-03-10T22:06:08.328Z,55.21
2023-03-10T22:08:37.401Z,54.58
2023-03-10T22:11:07.057Z,54.66
2023-03-10T22:13:36.852Z,54.49
2023-03-10T22:16:06.550Z,54.24
2023-03-10T22:18:37.605Z,53.91
2023-03-10T22:21:06.320Z,54.56
2023-03-10T22:23:34.652Z,54.42
2023-03-10T22:26:03.243Z,53.83
2023-03-10T22:28:31.643Z,53.61
2023-03-10T22:31:00.382Z,52.93
2023-03-10T22:33:29.314Z,52.88
2023-03-10T22:36:08.594Z,53.05
2023-03-10T22:38:37.578Z,52.58
2023-03-10T22:41:13.286Z,52.57
2023-03-10T22:43:42.127Z,52.32
2023-03-10T22:48:24.087Z,60.60
2023-03-10T22:50:52.549Z,53.85
2023-03-10T22:53:21.287Z,53.45
2023-03-10T22:55:49.902Z,53.02
2023-03-10T22:58:18.141Z,53.13
2023-03-10T23:00:46.618Z,52.61
2023-03-10T23:03:16.206Z,52.66
2023-03-10T23:05:47.952Z,52.98
2023-03-10T23:08:18.995Z,52.36
2023-03-10T23:10:47.771Z,52.28
2023-03-10T23:13:17.423Z,52.71
2023-03-10T23:15:46.162Z,52.54
2023-03-10T23:18:15.262Z,52.68
2023-03-10T23:20:45.575Z,52.39
2023-03-10T23:23:15.965Z,51.91
2023-03-10T23:25:51.105Z,51.99
2023-03-10T23:28:20.664Z,52.40
2023-03-10T23:30:49.743Z,51.86
2023-03-10T23:33:21.197Z,51.69
2023-03-10T23:35:54.183Z,51.91
2023-03-10T23:38:24.076Z,51.78
2023-03-10T23:40:52.938Z,51.90
2023-03-10T23:43:21.317Z,51.97
2023-03-10T23:45:51.847Z,51.97
2023-03-10T23:48:20.565Z,51.65
2023-03-10T23:50:48.938Z,51.64
2023-03-10T23:53:18.532Z,51.68
2023-03-10T23:55:47.345Z,52.07
2023-03-10T23:58:17.464Z,51.67
